Terminal Aerodrome Forecast
Issued by NWS

Current Version | Previous Version | Text Only | Print | Product List | Glossary Off
Versions: 1 2 3 4 5 6 7 8 9 10 11 12 13 14 15 16 17

349
FTUS41 KPBZ 191734
TAFHLG
TAF
KHLG 191734Z 1918/2018 27010KT P6SM FEW020
     FM200200 26004KT P6SM FEW010
     FM200800 00000KT P6SM SCT010
     FM201500 00000KT P6SM SCT100=

USA.gov is the U.S. government's official web portal to all federal, state and local government web resources and services.